Flight Track Log - Related Links

Times and Time Zones

All times are in EDT time to prevent confusion due to time zone crossing. See the UAE35 flight status page for this flight to view local times or setup timezone preferences in your user account.

Time Position Orientation Groundspeed Altitude Reporting Facility
EDT Latitude Longitude Course Direction KTS MPH feet Rate Location/Type
Sun 11:46:47 PM 25.2720 55.3380 306° West 178 205 900  Level FlightAware ADS-B
Sun 11:47:12 PM 25.2850 55.3210 310° West 175 201 1,900 2,618 Climbing FlightAware ADS-B
Sun 11:47:42 PM 25.3070 55.3070 330° Northwest 187 215 3,300 2,600 Climbing FlightAware ADS-B
Sun 11:48:12 PM 25.3350 55.2920 334° Northwest 211 243 4,500 2,000 Climbing FlightAware ADS-B
Sun 11:48:57 PM 25.3830 55.3110 20° North 276 318 5,800 1,964 Climbing FlightAware ADS-B
Sun 11:49:07 PM 25.3920 55.3170 31° Northeast 280 322 6,300 3,429 Climbing FlightAware ADS-B
Sun 11:49:32 PM 25.4210 55.3370 32° Northeast 289 333 7,800 3,100 Climbing FlightAware ADS-B
Sun 11:50:07 PM 25.4550 55.3610 33° Northeast 298 343 9,400 2,000 Climbing FlightAware ADS-B
Sun 11:51:02 PM 25.5150 55.4040 33° Northeast 308 354 10,800 884 Climbing FlightAware ADS-B
Sun 11:51:42 PM 25.5560 55.4330 33° Northeast 308 354 10,800  Level FlightAware ADS-B
Sun 11:52:22 PM 25.5970 55.4630 33° Northeast 308 354 10,800 171 Level FlightAware ADS-B
Sun 11:55:00 PM 25.8296 55.2572 321° Northwest  Level Estimated
Sun 11:56:00 PM 25.9178 55.1788 321° Northwest  Level Estimated
Sun 11:57:00 PM 26.0061 55.1003 321° Northwest  Level Estimated
Sun 11:58:00 PM 26.0942 55.0217 321° Northwest  Level Estimated
Sun 11:59:00 PM 26.1823 54.9430 321° Northwest  Level Estimated
Mon 12:00:00 AM 26.2704 54.8641 321° Northwest  Level Estimated
Mon 12:01:00 AM 26.3585 54.7852 321° Northwest  Level Estimated
Mon 12:02:00 AM 26.4464 54.7061 321° Northwest  Level Estimated
Mon 12:03:00 AM 26.5344 54.6269 321° Northwest  Level Estimated
Mon 12:04:00 AM 26.6223 54.5476 321° Northwest  Level Estimated
Mon 12:05:00 AM 26.7102 54.4681 321° Northwest  Level Estimated
Mon 12:06:00 AM 26.7980 54.3885 321° Northwest  Level Estimated
Mon 12:07:00 AM 26.8858 54.3088 321° Northwest  Level Estimated
Mon 12:08:00 AM 26.9735 54.2290 321° Northwest  Level Estimated
Mon 12:09:00 AM 27.0612 54.1491 321° Northwest  Level Estimated
Mon 12:10:00 AM 27.1488 54.0690 321° Northwest  Level Estimated
Mon 12:11:00 AM 27.2364 53.9888 321° Northwest  Level Estimated
Mon 12:12:00 AM 27.3239 53.9085 321° Northwest  Level Estimated
Mon 12:13:00 AM 27.4114 53.8281 321° Northwest  Level Estimated
Mon 12:14:00 AM 27.4989 53.7475 321° Northwest  Level Estimated
Mon 12:15:00 AM 27.5863 53.6668 321° Northwest  Level Estimated
Mon 12:16:00 AM 27.6737 53.5860 321° Northwest  Level Estimated
Mon 12:17:00 AM 27.7610 53.5050 321° Northwest  Level Estimated
Mon 12:18:00 AM 27.8482 53.4239 321° Northwest  Level Estimated
Mon 12:19:00 AM 27.9355 53.3427 321° Northwest  Level Estimated
Mon 12:20:00 AM 28.0226 53.2613 321° Northwest  Level Estimated
Mon 12:21:00 AM 28.1098 53.1799 320° Northwest  Level Estimated
Mon 12:22:00 AM 28.1968 53.0982 320° Northwest  Level Estimated
Mon 12:23:00 AM 28.2839 53.0165 320° Northwest  Level Estimated
Mon 12:24:00 AM 28.3708 52.9346 320° Northwest  Level Estimated
Mon 12:25:00 AM 28.4578 52.8526 320° Northwest  Level Estimated
Mon 12:26:00 AM 28.5447 52.7704 320° Northwest  Level Estimated
Mon 12:27:00 AM 28.6315 52.6881 320° Northwest  Level Estimated
Mon 12:28:00 AM 28.7183 52.6057 320° Northwest  Level Estimated
Mon 12:29:00 AM 28.8050 52.5232 320° Northwest  Level Estimated
Mon 12:30:00 AM 28.8917 52.4405 320° Northwest  Level Estimated
Mon 12:31:00 AM 28.9783 52.3576 320° Northwest  Level Estimated
Mon 12:32:00 AM 29.0649 52.2747 320° Northwest  Level Estimated
Mon 12:33:00 AM 29.1514 52.1915 320° Northwest  Level Estimated
Mon 12:34:00 AM 29.2379 52.1083 320° Northwest  Level Estimated
Mon 12:35:00 AM 29.3243 52.0249 320° Northwest  Level Estimated
Mon 12:36:00 AM 29.4107 51.9413 320° Northwest  Level Estimated
Mon 12:37:00 AM 29.4970 51.8577 320° Northwest  Level Estimated
Mon 12:38:00 AM 29.5833 51.7738 320° Northwest  Level Estimated
Mon 12:39:00 AM 29.6695 51.6899 320° Northwest  Level Estimated
Mon 12:40:00 AM 29.7557 51.6058 320° Northwest  Level Estimated
Mon 12:41:00 AM 29.8418 51.5215 320° Northwest  Level Estimated
Mon 12:42:00 AM 29.9278 51.4371 320° Northwest  Level Estimated
Mon 12:43:00 AM 30.0138 51.3526 320° Northwest  Level Estimated
Mon 12:44:00 AM 30.0998 51.2679 320° Northwest  Level Estimated
Mon 12:45:00 AM 30.1857 51.1830 320° Northwest  Level Estimated
Mon 12:46:00 AM 30.2715 51.0980 319° Northwest  Level Estimated
Mon 12:47:00 AM 30.3573 51.0129 319° Northwest  Level Estimated
Mon 12:48:00 AM 30.4430 50.9276 319° Northwest  Level Estimated
Mon 12:49:00 AM 30.5287 50.8422 319° Northwest  Level Estimated
Mon 12:50:00 AM 30.6143 50.7566 319° Northwest  Level Estimated
Mon 12:51:00 AM 30.6999 50.6708 319° Northwest  Level Estimated
Mon 12:52:00 AM 30.7854 50.5849 319° Northwest  Level Estimated
Mon 12:53:00 AM 30.8708 50.4989 319° Northwest  Level Estimated
Mon 12:54:00 AM 30.9562 50.4127 319° Northwest  Level Estimated
Mon 12:55:00 AM 31.0415 50.3264 319° Northwest  Level Estimated
Mon 12:56:00 AM 31.1268 50.2398 319° Northwest  Level Estimated
Mon 12:57:00 AM 31.2120 50.1532 319° Northwest  Level Estimated
Mon 12:58:00 AM 31.2972 50.0664 319° Northwest  Level Estimated
Mon 12:59:00 AM 31.3823 49.9794 319° Northwest  Level Estimated
Mon 01:00:00 AM 31.4674 49.8923 319° Northwest  Level Estimated
Mon 01:01:00 AM 31.5523 49.8050 319° Northwest  Level Estimated
Mon 01:02:00 AM 31.6373 49.7175 319° Northwest  Level Estimated
Mon 01:03:00 AM 31.7221 49.6299 319° Northwest  Level Estimated
Mon 01:04:00 AM 31.8069 49.5421 319° Northwest  Level Estimated
Mon 01:05:00 AM 31.8916 49.4542 319° Northwest  Level Estimated
Mon 01:06:00 AM 31.9763 49.3661 319° Northwest  Level Estimated
Mon 01:07:00 AM 32.0610 49.2779 319° Northwest  Level Estimated
Mon 01:08:00 AM 32.1455 49.1894 318° Northwest  Level Estimated
Mon 01:09:00 AM 32.2300 49.1009 318° Northwest  Level Estimated
Mon 01:10:00 AM 32.3144 49.0121 318° Northwest  Level Estimated
Mon 01:11:00 AM 32.3988 48.9232 318° Northwest  Level Estimated
Mon 01:12:00 AM 32.4831 48.8341 318° Northwest  Level Estimated
Mon 01:13:00 AM 32.5674 48.7449 318° Northwest  Level Estimated
Mon 01:14:00 AM 32.6516 48.6554 318° Northwest  Level Estimated
Mon 01:15:00 AM 32.7357 48.5659 318° Northwest  Level Estimated
Mon 01:16:00 AM 32.8198 48.4761 318° Northwest  Level Estimated
Mon 01:17:00 AM 32.9038 48.3862 318° Northwest  Level Estimated
Mon 01:18:00 AM 32.9877 48.2961 318° Northwest  Level Estimated
Mon 01:19:00 AM 33.0716 48.2058 318° Northwest  Level Estimated
Mon 01:20:00 AM 33.1554 48.1154 318° Northwest  Level Estimated
Mon 01:21:00 AM 33.2391 48.0248 318° Northwest  Level Estimated
Mon 01:22:00 AM 33.3228 47.9340 318° Northwest  Level Estimated
Mon 01:23:00 AM 33.4064 47.8431 318° Northwest  Level Estimated
Mon 01:24:00 AM 33.4899 47.7519 318° Northwest  Level Estimated
Mon 01:25:00 AM 33.5734 47.6606 318° Northwest  Level Estimated
Mon 01:26:00 AM 33.6568 47.5691 318° Northwest  Level Estimated
Mon 01:27:00 AM 33.7401 47.4775 318° Northwest  Level Estimated
Mon 01:28:00 AM 33.8234 47.3856 318° Northwest  Level Estimated
Mon 01:29:00 AM 33.9066 47.2936 317° Northwest  Level Estimated
Mon 01:30:00 AM 33.9897 47.2014 317° Northwest  Level Estimated
Mon 01:31:00 AM 34.0728 47.1090 317° Northwest  Level Estimated
Mon 01:32:00 AM 34.1558 47.0165 317° Northwest  Level Estimated
Mon 01:33:00 AM 34.2387 46.9237 317° Northwest  Level Estimated
Mon 01:34:00 AM 34.3215 46.8308 317° Northwest  Level Estimated
Mon 01:35:00 AM 34.4043 46.7377 317° Northwest  Level Estimated
Mon 01:36:00 AM 34.4870 46.6444 317° Northwest  Level Estimated
Mon 01:37:00 AM 34.5697 46.5509 317° Northwest  Level Estimated
Mon 01:38:00 AM 34.6522 46.4572 317° Northwest  Level Estimated
Mon 01:39:00 AM 34.7347 46.3634 317° Northwest  Level Estimated
Mon 01:40:00 AM 34.8172 46.2694 317° Northwest  Level Estimated
Mon 01:41:00 AM 34.8995 46.1751 317° Northwest  Level Estimated
Mon 01:42:00 AM 34.9818 46.0807 317° Northwest  Level Estimated
Mon 01:43:00 AM 35.0640 45.9861 317° Northwest  Level Estimated
Mon 01:44:00 AM 35.1461 45.8913 317° Northwest  Level Estimated
Mon 01:45:00 AM 35.2282 45.7963 317° Northwest  Level Estimated
Mon 01:46:00 AM 35.3102 45.7011 317° Northwest  Level Estimated
Mon 01:47:00 AM 35.3921 45.6058 317° Northwest  Level Estimated
Mon 01:48:00 AM 35.4739 45.5102 316° Northwest  Level Estimated
Mon 01:49:00 AM 35.5557 45.4144 316° Northwest  Level Estimated
Mon 01:50:00 AM 35.6374 45.3185 316° Northwest  Level Estimated
Mon 01:51:00 AM 35.7190 45.2223 316° Northwest  Level Estimated
Mon 01:52:00 AM 35.8005 45.1260 316° Northwest  Level Estimated
Mon 01:53:00 AM 35.8820 45.0294 316° Northwest  Level Estimated
Mon 01:54:00 AM 35.9633 44.9327 316° Northwest  Level Estimated
Mon 01:55:00 AM 36.0447 44.8357 316° Northwest  Level Estimated
Mon 01:56:00 AM 36.1259 44.7386 316° Northwest  Level Estimated
Mon 01:57:00 AM 36.2070 44.6412 316° Northwest  Level Estimated
Mon 01:58:00 AM 36.2881 44.5437 316° Northwest  Level Estimated
Mon 01:59:00 AM 36.3690 44.4459 316° Northwest  Level Estimated
Mon 02:00:00 AM 36.4500 44.3480 316° Northwest  Level Estimated
Mon 02:01:00 AM 36.5308 44.2498 316° Northwest  Level Estimated
Mon 02:02:00 AM 36.6115 44.1514 316° Northwest  Level Estimated
Mon 02:03:00 AM 36.6922 44.0529 316° Northwest  Level Estimated
Mon 02:04:00 AM 36.7728 43.9541 316° Northwest  Level Estimated
Mon 02:05:00 AM 36.8532 43.8551 315° West  Level Estimated
Mon 02:06:00 AM 36.9337 43.7559 315° West  Level Estimated
Mon 02:07:00 AM 37.0140 43.6565 315° West  Level Estimated
Mon 02:08:00 AM 37.0942 43.5569 315° West  Level Estimated
Mon 02:09:00 AM 37.1744 43.4570 315° West  Level Estimated
Mon 02:10:00 AM 37.2545 43.3570 315° West  Level Estimated
Mon 02:11:00 AM 37.3345 43.2567 315° West  Level Estimated
Mon 02:12:00 AM 37.4144 43.1563 315° West  Level Estimated
Mon 02:13:00 AM 37.4942 43.0556 315° West  Level Estimated
Mon 02:14:00 AM 37.5740 42.9547 315° West  Level Estimated
Mon 02:15:00 AM 37.6536 42.8536 315° West  Level Estimated
Mon 02:16:00 AM 37.7332 42.7523 315° West  Level Estimated
Mon 02:17:00 AM 37.8127 42.6507 315° West  Level Estimated
Mon 02:18:00 AM 37.8921 42.5489 315° West  Level Estimated
Mon 02:19:00 AM 37.9714 42.4469 315° West  Level Estimated
Mon 02:20:00 AM 38.0506 42.3447 315° West  Level Estimated
Mon 02:21:00 AM 38.1297 42.2423 315° West  Level Estimated
Mon 02:22:00 AM 38.2088 42.1396 314° West  Level Estimated
Mon 02:23:00 AM 38.2877 42.0368 314° West  Level Estimated
Mon 02:24:00 AM 38.3666 41.9337 314° West  Level Estimated
Mon 02:25:00 AM 38.4454 41.8304 314° West  Level Estimated
Mon 02:26:00 AM 38.5241 41.7268 314° West  Level Estimated
Mon 02:27:00 AM 38.6026 41.6230 314° West  Level Estimated
Mon 02:28:00 AM 38.6811 41.5190 314° West  Level Estimated
Mon 02:29:00 AM 38.7595 41.4148 314° West  Level Estimated
Mon 02:30:00 AM 38.8379 41.3103 314° West  Level Estimated
Mon 02:30:37 AM 41.9570 42.1860 314° West 467 537 38,000  Level FlightAware ADS-B
Mon 02:31:00 AM 38.9161 41.2057 314° West  Level Estimated
Mon 02:31:22 AM 42.0030 42.0910 303° West 467 537 38,000  Level FlightAware ADS-B
Mon 02:32:02 AM 42.0430 42.0080 303° West 467 537 38,000  Level FlightAware ADS-B
Mon 02:32:42 AM 42.0830 41.9250 303° West 467 537 38,000  Level FlightAware ADS-B
Mon 02:33:32 AM 42.1330 41.8210 303° West 467 537 38,000  Level FlightAware ADS-B
Mon 02:34:12 AM 42.1730 41.7380 303° West 467 537 38,000  Level FlightAware ADS-B
Mon 02:34:52 AM 42.2130 41.6550 303° West 467 537 38,000  Level FlightAware ADS-B
Mon 02:35:32 AM 42.2530 41.5720 303° West 467 537 38,000  Level FlightAware ADS-B
Mon 02:36:12 AM 42.2930 41.4890 303° West 467 537 38,000  Level FlightAware ADS-B
Mon 02:37:12 AM 42.4080 41.2450 303° West 459 528 38,000  Level FlightAware ADS-B
Mon 02:37:52 AM 42.4540 41.1480 303° West 458 527 38,000  Level FlightAware ADS-B
Mon 02:38:27 AM 42.4940 41.0610 302° West 457 526 38,000  Level FlightAware ADS-B
Mon 02:39:32 AM 42.5680 40.9050 303° West 454 522 38,000  Level FlightAware ADS-B
Mon 02:40:12 AM 42.6120 40.8080 302° West 453 521 38,000  Level FlightAware ADS-B
Mon 02:40:57 AM 42.6620 40.7010 302° West 452 520 38,000  Level FlightAware ADS-B
Mon 02:41:37 AM 42.7070 40.6040 302° West 453 521 38,000  Level FlightAware ADS-B
Mon 02:42:17 AM 42.7530 40.5050 302° West 455 524 38,000  Level FlightAware ADS-B
Mon 02:42:57 AM 42.7970 40.4080 302° West 454 522 38,000  Level FlightAware ADS-B
Mon 02:43:47 AM 42.8510 40.2890 302° West 455 524 38,000  Level FlightAware ADS-B
Mon 02:44:27 AM 42.8960 40.1920 302° West 456 525 38,000  Level FlightAware ADS-B
Mon 02:45:07 AM 42.9410 40.0910 301° West 458 527 38,000  Level FlightAware ADS-B
Mon 02:45:47 AM 42.9860 39.9930 302° West 458 527 38,000  Level FlightAware ADS-B
Mon 02:46:27 AM 43.0290 39.8900 300° West 460 529 38,000  Level FlightAware ADS-B
Mon 02:47:12 AM 43.0730 39.7780 298° West 458 527 38,000  Level FlightAware ADS-B
Mon 02:47:52 AM 43.1150 39.6740 299° West 457 526 38,000  Level FlightAware ADS-B
Mon 02:48:32 AM 43.1560 39.5730 299° West 457 526 38,000  Level FlightAware ADS-B
Mon 02:49:22 AM 43.2060 39.4490 299° West 456 525 38,000  Level FlightAware ADS-B
Mon 02:50:02 AM 43.2470 39.3470 299° West 456 525 38,000  Level FlightAware ADS-B
Mon 02:50:42 AM 43.2880 39.2440 299° West 454 522 38,000  Level FlightAware ADS-B
Mon 02:51:22 AM 43.3280 39.1430 299° West 453 521 38,000  Level FlightAware ADS-B
Mon 02:52:07 AM 43.3720 39.0330 299° West 453 521 38,000  Level FlightAware ADS-B
Mon 02:52:47 AM 43.4160 38.9290 300° West 454 522 38,000  Level FlightAware ADS-B
Mon 02:53:22 AM 43.4490 38.8500 300° West 454 522 38,000  Level FlightAware ADS-B
Mon 02:54:17 AM 43.5080 38.7060 300° West 453 521 38,000  Level FlightAware ADS-B
Mon 02:54:57 AM 43.5490 38.6060 300° West 454 522 38,000  Level FlightAware ADS-B
Mon 02:55:37 AM 43.5910 38.5020 299° West 454 522 38,000  Level FlightAware ADS-B
Mon 02:56:12 AM 43.6240 38.4230 300° West 452 520 38,000  Level FlightAware ADS-B
Mon 02:56:52 AM 43.6640 38.3210 298° West 451 519 38,000  Level FlightAware ADS-B
Mon 02:57:42 AM 43.7140 38.1980 299° West 451 519 38,000  Level FlightAware ADS-B
Mon 02:58:27 AM 43.7620 38.0780 299° West 451 519 38,000  Level FlightAware ADS-B
Mon 02:59:07 AM 43.8190 37.9890 312° West 460 529 38,000  Level FlightAware ADS-B
Mon 02:59:52 AM 43.8920 37.9050 320° Northwest 461 531 38,000  Level FlightAware ADS-B
Mon 03:00:27 AM 43.9380 37.8510 320° Northwest 461 531 38,000  Level FlightAware ADS-B
Mon 03:01:07 AM 43.9930 37.7860 320° Northwest 461 531 38,000  Level FlightAware ADS-B
Mon 03:01:47 AM 44.0770 37.6910 321° Northwest 459 528 38,000  Level FlightAware ADS-B
Mon 03:02:52 AM 44.1820 37.5680 320° Northwest 459 528 38,000  Level FlightAware ADS-B
Mon 03:03:32 AM 44.2470 37.4920 320° Northwest 459 528 38,000  Level FlightAware ADS-B
Mon 03:04:12 AM 44.3120 37.4160 320° Northwest 457 526 38,000  Level FlightAware ADS-B
Mon 03:04:57 AM 44.3850 37.3290 320° Northwest 456 525 38,000  Level FlightAware ADS-B
Mon 03:05:37 AM 44.4490 37.2540 320° Northwest 457 526 38,000  Level FlightAware ADS-B
Mon 03:06:17 AM 44.5120 37.1790 320° Northwest 458 527 38,000  Level FlightAware ADS-B
Mon 03:07:02 AM 44.5940 37.0810 320° Northwest 455 524 38,000  Level FlightAware ADS-B
Mon 03:07:47 AM 44.6660 36.9950 320° Northwest 453 521 38,000  Level FlightAware ADS-B
Mon 03:08:27 AM 44.7290 36.9200 320° Northwest 449 517 38,000  Level FlightAware ADS-B
Mon 03:09:07 AM 44.7910 36.8440 319° Northwest 447 514 38,000  Level FlightAware ADS-B
Mon 03:09:52 AM 44.8630 36.7580 320° Northwest 446 513 38,000  Level FlightAware ADS-B
Mon 03:10:32 AM 44.9250 36.6820 319° Northwest 447 514 38,000  Level FlightAware ADS-B
Mon 03:11:17 AM 44.9950 36.5980 320° Northwest 448 516 38,000  Level FlightAware ADS-B
Mon 03:11:57 AM 45.0590 36.5240 321° Northwest 449 517 38,000  Level FlightAware ADS-B
Mon 03:12:37 AM 45.1250 36.4500 322° Northwest 451 519 38,000  Level FlightAware ADS-B
Mon 03:13:22 AM 45.1940 36.3640 319° Northwest 448 516 38,000  Level FlightAware ADS-B
Mon 03:14:02 AM 45.2480 36.2750 311° West 448 516 38,000  Level FlightAware ADS-B
Mon 03:14:47 AM 45.3080 36.1730 310° West 449 517 38,000  Level FlightAware ADS-B
Mon 03:15:27 AM 45.3620 36.0800 310° West 452 520 38,000  Level FlightAware ADS-B
Mon 03:16:12 AM 45.4220 35.9770 310° West 450 518 38,000  Level FlightAware ADS-B
Mon 03:16:52 AM 45.4740 35.8880 310° West 447 514 38,000  Level FlightAware ADS-B
Mon 03:17:32 AM 45.5270 35.7970 310° West 444 511 38,000  Level FlightAware ADS-B
Mon 03:18:17 AM 45.5850 35.6960 309° West 444 511 38,000  Level FlightAware ADS-B
Mon 03:18:57 AM 45.6380 35.6040 310° West 445 512 38,000  Level FlightAware ADS-B
Mon 03:19:37 AM 45.6900 35.5150 310° West 443 510 38,000  Level FlightAware ADS-B
Mon 03:20:22 AM 45.7480 35.4140 309° West 444 511 38,000  Level FlightAware ADS-B
Mon 03:21:02 AM 45.8000 35.3210 309° West 441 507 38,000  Level FlightAware ADS-B
Mon 03:21:47 AM 45.8570 35.2220 310° West 439 505 38,000  Level FlightAware ADS-B
Mon 03:22:27 AM 45.9090 35.1300 309° West 439 505 38,000  Level FlightAware ADS-B
Mon 03:23:12 AM 45.9670 35.0280 309° West 440 506 38,000  Level FlightAware ADS-B
Mon 03:23:52 AM 46.0170 34.9380 309° West 442 509 38,000  Level FlightAware ADS-B
Mon 03:24:32 AM 46.0690 34.8470 309° West 440 506 38,000  Level FlightAware ADS-B
Mon 03:25:17 AM 46.1260 34.7440 309° West 439 505 38,000  Level FlightAware ADS-B
Mon 03:25:57 AM 46.1770 34.6520 309° West 437 503 38,000  Level FlightAware ADS-B
Mon 03:26:42 AM 46.2330 34.5510 309° West 439 505 38,000  Level FlightAware ADS-B
Mon 03:27:22 AM 46.2840 34.4590 309° West 440 506 38,000  Level FlightAware ADS-B
Mon 03:28:02 AM 46.3350 34.3670 309° West 440 506 38,000  Level FlightAware ADS-B
Mon 03:28:47 AM 46.3920 34.2630 308° West 442 509 38,000  Level FlightAware ADS-B
Mon 03:29:27 AM 46.4430 34.1710 309° West 442 509 38,000  Level FlightAware ADS-B
Mon 03:30:07 AM 46.4940 34.0770 308° West 442 509 38,000  Level FlightAware ADS-B
Mon 03:30:52 AM 46.5510 33.9730 309° West 442 509 38,000  Level FlightAware ADS-B
Mon 03:31:32 AM 46.6020 33.8790 308° West 441 507 38,000  Level FlightAware ADS-B
Mon 03:32:12 AM 46.6520 33.7860 308° West 441 507 38,000  Level FlightAware ADS-B
Mon 03:32:57 AM 46.7060 33.6850 308° West 439 505 38,000  Level FlightAware ADS-B
Mon 03:33:37 AM 46.7580 33.5880 308° West 438 504 38,000  Level FlightAware ADS-B
Mon 03:34:22 AM 46.8130 33.4850 308° West 438 504 38,000  Level FlightAware ADS-B
Mon 03:35:02 AM 46.8620 33.3870 306° West 439 505 38,000  Level FlightAware ADS-B
Mon 03:35:47 AM 46.9150 33.2800 306° West 441 507 38,000  Level FlightAware ADS-B
Mon 03:36:27 AM 46.9630 33.1830 306° West 443 510 38,000  Level FlightAware ADS-B
Mon 03:37:12 AM 47.0170 33.0750 306° West 446 513 38,000  Level FlightAware ADS-B
Mon 03:37:52 AM 47.0660 32.9770 306° West 446 513 38,000  Level FlightAware ADS-B
Mon 03:38:27 AM 47.1090 32.8910 306° West 446 513 38,000  Level FlightAware ADS-B
Mon 03:39:12 AM 47.1580 32.7950 307° West 446 513 38,000  Level FlightAware ADS-B
Mon 03:40:07 AM 47.2240 32.6640 307° West 446 513 38,000  Level FlightAware ADS-B
Mon 03:40:57 AM 47.2920 32.5280 306° West 448 516 38,000  Level FlightAware ADS-B
Mon 03:41:37 AM 47.3420 32.4270 306° West 447 514 38,000  Level FlightAware ADS-B
Mon 03:42:12 AM 47.3820 32.3480 307° West 448 516 38,000  Level FlightAware ADS-B
Mon 03:43:02 AM 47.4470 32.2160 306° West 449 517 38,000  Level FlightAware ADS-B
Mon 03:43:42 AM 47.4950 32.1200 307° West 448 516 38,000  Level FlightAware ADS-B
Mon 03:44:27 AM 47.5520 32.0030 306° West 446 513 38,000  Level FlightAware ADS-B
Mon 03:45:07 AM 47.6000 31.9050 306° West 444 511 38,000  Level FlightAware ADS-B
Mon 03:45:47 AM 47.6480 31.8070 306° West 442 509 38,000  Level FlightAware ADS-B
Mon 03:46:32 AM 47.7000 31.6990 306° West 441 507 38,000  Level FlightAware ADS-B
Mon 03:47:12 AM 47.7490 31.5990 306° West 439 505 38,000  Level FlightAware ADS-B
Mon 03:47:57 AM 47.8020 31.4910 306° West 440 506 38,000  Level FlightAware ADS-B
Mon 03:48:37 AM 47.8490 31.3920 305° West 440 506 38,000  Level FlightAware ADS-B
Mon 03:49:22 AM 47.9040 31.2780 306° West 440 506 38,000  Level FlightAware ADS-B
Mon 03:50:02 AM 47.9500 31.1810 305° West 442 509 38,000  Level FlightAware ADS-B
Mon 03:50:42 AM 47.9970 31.0840 306° West 442 509 38,000  Level FlightAware ADS-B
Mon 03:51:27 AM 48.0490 30.9740 305° West 443 510 38,000  Level FlightAware ADS-B
Mon 03:52:07 AM 48.0980 30.8720 306° West 444 511 38,000  Level FlightAware ADS-B
Mon 03:52:47 AM 48.1430 30.7690 303° West 443 510 38,000  Level FlightAware ADS-B
Mon 03:53:32 AM 48.1930 30.6540 303° West 441 507 38,000  Level FlightAware ADS-B
Mon 03:54:12 AM 48.2390 30.5500 304° West 442 509 38,000  Level FlightAware ADS-B
Mon 03:54:57 AM 48.2890 30.4370 304° West 439 505 38,000  Level FlightAware ADS-B
Mon 03:55:37 AM 48.3320 30.3390 303° West 437 503 38,000  Level FlightAware ADS-B
Mon 03:56:22 AM 48.3840 30.2210 304° West 436 502 38,000  Level FlightAware ADS-B
Mon 03:57:02 AM 48.4280 30.1190 303° West 436 502 38,000  Level FlightAware ADS-B
Mon 03:57:42 AM 48.4730 30.0170 304° West 436 502 38,000  Level FlightAware ADS-B
Mon 03:58:22 AM 48.5160 29.9160 303° West 437 503 38,000  Level FlightAware ADS-B
Mon 03:59:07 AM 48.5640 29.8040 303° West 436 502 38,000  Level FlightAware ADS-B
Mon 03:59:52 AM 48.6140 29.6870 303° West 437 503 38,000  Level FlightAware ADS-B
Mon 04:00:32 AM 48.6580 29.5840 303° West 438 504 38,000  Level FlightAware ADS-B
Mon 04:01:12 AM 48.7020 29.4800 303° West 438 504 38,000  Level FlightAware ADS-B
Mon 04:01:57 AM 48.7500 29.3670 303° West 436 502 38,000  Level FlightAware ADS-B
Mon 04:02:37 AM 48.7920 29.2670 303° West 436 502 38,000  Level FlightAware ADS-B
Mon 04:03:17 AM 48.8360 29.1630 303° West 436 502 38,000  Level FlightAware ADS-B
Mon 04:03:57 AM 48.8790 29.0590 302° West 436 502 38,000  Level FlightAware ADS-B
Mon 04:04:42 AM 48.9280 28.9410 302° West 437 503 38,000  Level FlightAware ADS-B
Mon 04:05:27 AM 48.9760 28.8250 302° West 437 503 38,000  Level FlightAware ADS-B
Mon 04:06:07 AM 49.0210 28.7220 304° West 439 505 38,000  Level FlightAware ADS-B
Mon 04:06:47 AM 49.0660 28.6190 304° West 439 505 38,000  Level FlightAware ADS-B
Mon 04:07:32 AM 49.1160 28.5010 303° West 440 506 38,000  Level FlightAware ADS-B
Mon 04:08:12 AM 49.1610 28.3950 303° West 439 505 38,000  Level FlightAware ADS-B
Mon 04:08:57 AM 49.2090 28.2810 303° West 439 505 38,000  Level FlightAware ADS-B
Mon 04:09:37 AM 49.2530 28.1770 303° West 440 506 38,000  Level FlightAware ADS-B
Mon 04:10:22 AM 49.3040 28.0560 303° West 442 509 38,000  Level FlightAware ADS-B
Mon 04:11:02 AM 49.3480 27.9500 303° West 441 507 38,000  Level FlightAware ADS-B
Mon 04:11:42 AM 49.3920 27.8440 303° West 442 509 38,000  Level FlightAware ADS-B
Mon 04:12:27 AM 49.4390 27.7310 303° West 443 510 38,000  Level FlightAware ADS-B
Mon 04:13:07 AM 49.4830 27.6260 303° West 443 510 38,000  Level FlightAware ADS-B
Mon 04:13:47 AM 49.5280 27.5180 303° West 442 509 38,000  Level FlightAware ADS-B
Mon 04:14:32 AM 49.5780 27.3970 303° West 441 507 38,000  Level FlightAware ADS-B
Mon 04:15:12 AM 49.6230 27.2890 303° West 440 506 38,000  Level FlightAware ADS-B
Mon 04:15:57 AM 49.6710 27.1720 302° West 440 506 38,000  Level FlightAware ADS-B
Mon 04:16:37 AM 49.7130 27.0670 302° West 441 507 38,000  Level FlightAware ADS-B
Mon 04:17:17 AM 49.7570 26.9590 302° West 440 506 38,000  Level FlightAware ADS-B
Mon 04:18:02 AM 49.8050 26.8400 302° West 439 505 38,000  Level FlightAware ADS-B
Mon 04:18:42 AM 49.8480 26.7360 303° West 439 505 38,000  Level FlightAware ADS-B
Mon 04:19:27 AM 49.8970 26.6130 302° West 440 506 38,000  Level FlightAware ADS-B
Mon 04:20:07 AM 49.9400 26.5050 302° West 440 506 38,000  Level FlightAware ADS-B
Mon 04:20:47 AM 49.9830 26.3980 302° West 439 505 38,000  Level FlightAware ADS-B
Mon 04:21:32 AM 50.0290 26.2780 301° West 439 505 38,000  Level FlightAware ADS-B
Mon 04:22:12 AM 50.0710 26.1700 301° West 439 505 38,000  Level FlightAware ADS-B
Mon 04:22:52 AM 50.1120 26.0620 301° West 442 509 38,000  Level FlightAware ADS-B
Mon 04:23:37 AM 50.1600 25.9370 301° West 444 511 38,000  Level FlightAware ADS-B
Mon 04:24:17 AM 50.2020 25.8260 301° West 445 512 38,000  Level FlightAware ADS-B
Mon 04:25:02 AM 50.2480 25.7040 301° West 445 512 38,000  Level FlightAware ADS-B
Mon 04:25:37 AM 50.2850 25.6040 300° West 445 512 38,000  Level FlightAware ADS-B
Mon 04:26:27 AM 50.3360 25.4700 301° West 444 511 38,000  Level FlightAware ADS-B
Mon 04:27:07 AM 50.3780 25.3570 300° West 444 511 38,000  Level FlightAware ADS-B
Mon 04:27:47 AM 50.4180 25.2490 300° West 439 505 38,000  Level FlightAware ADS-B
Mon 04:28:32 AM 50.4630 25.1250 300° West 435 501 38,000  Level FlightAware ADS-B
Mon 04:29:12 AM 50.5030 25.0160 300° West 429 494 38,000  Level FlightAware ADS-B
Mon 04:29:57 AM 50.5460 24.8990 300° West 425 489 38,000  Level FlightAware ADS-B
Mon 04:30:37 AM 50.5860 24.7890 300° West 424 488 38,000  Level FlightAware ADS-B
Mon 04:31:32 AM 50.6380 24.6450 300° West 425 489 38,000  Level FlightAware ADS-B
Mon 04:32:17 AM 50.6830 24.5210 300° West 425 489 38,000  Level FlightAware ADS-B
Mon 04:32:57 AM 50.7240 24.4080 300° West 426 490 38,000  Level FlightAware ADS-B
Mon 04:33:37 AM 50.7610 24.3040 299° West 428 493 38,000  Level FlightAware ADS-B
Mon 04:34:22 AM 50.8050 24.1810 300° West 428 493 38,000  Level FlightAware ADS-B
Mon 04:35:02 AM 50.8430 24.0730 299° West 429 494 38,000  Level FlightAware ADS-B
Mon 04:35:47 AM 50.8900 23.9550 302° West 428 493 38,000  Level FlightAware ADS-B
Mon 04:36:27 AM 50.9360 23.8510 305° West 432 497 38,000  Level FlightAware ADS-B
Mon 04:37:07 AM 50.9880 23.7480 309° West 433 498 38,000  Level FlightAware ADS-B
Mon 04:37:52 AM 51.0450 23.6420 311° West 432 497 38,000  Level FlightAware ADS-B
Mon 04:38:32 AM 51.0970 23.5460 311° West 431 496 38,000  Level FlightAware ADS-B
Mon 04:39:12 AM 51.1480 23.4500 310° West 430 495 38,000  Level FlightAware ADS-B
Mon 04:39:57 AM 51.2050 23.3430 310° West 430 495 38,000  Level FlightAware ADS-B
Mon 04:40:37 AM 51.2560 23.2460 310° West 430 495 38,000  Level FlightAware ADS-B
Mon 04:41:22 AM 51.3140 23.1360 310° West 429 494 38,000  Level FlightAware ADS-B
Mon 04:42:02 AM 51.3650 23.0380 310° West 429 494 38,000  Level FlightAware ADS-B
Mon 04:42:47 AM 51.4220 22.9280 310° West 428 493 38,000  Level FlightAware ADS-B
Mon 04:43:27 AM 51.4710 22.8340 310° West 429 494 38,000  Level FlightAware ADS-B
Mon 04:44:07 AM 51.5220 22.7350 310° West 429 494 38,000  Level FlightAware ADS-B
Mon 04:44:52 AM 51.5800 22.6220 310° West 429 494 38,000  Level FlightAware ADS-B
Mon 04:45:32 AM 51.6300 22.5240 309° West 429 494 38,000  Level FlightAware ADS-B
Mon 04:46:17 AM 51.6860 22.4150 310° West 427 491 38,000  Level FlightAware ADS-B
Mon 04:46:57 AM 51.7370 22.3150 309° West 426 490 38,000  Level FlightAware ADS-B
Mon 04:47:42 AM 51.7910 22.2060 309° West 426 490 38,000  Level FlightAware ADS-B
Mon 04:48:22 AM 51.8410 22.1070 309° West 428 493 38,000  Level FlightAware ADS-B
Mon 04:48:57 AM 51.8840 22.0210 309° West 428 493 38,000  Level FlightAware ADS-B
Mon 04:49:47 AM 51.9450 21.8990 309° West 428 493 38,000  Level FlightAware ADS-B
Mon 04:50:27 AM 51.9920 21.8050 309° West 428 493 38,000  Level FlightAware ADS-B
Mon 04:51:12 AM 52.0530 21.6830 309° West 429 494 38,000  Level FlightAware ADS-B
Mon 04:51:52 AM 52.1030 21.5810 309° West 430 495 38,000  Level FlightAware ADS-B
Mon 04:52:37 AM 52.1570 21.4700 308° West 431 496 38,000  Level FlightAware ADS-B
Mon 04:53:17 AM 52.2070 21.3680 309° West 432 497 38,000  Level FlightAware ADS-B
Mon 04:53:57 AM 52.2570 21.2670 309° West 432 497 38,000  Level FlightAware ADS-B
Mon 04:54:42 AM 52.3140 21.1480 308° West 432 497 38,000  Level FlightAware ADS-B
Mon 04:55:22 AM 52.3630 21.0460 308° West 431 496 38,000  Level FlightAware ADS-B
Mon 04:56:07 AM 52.4170 20.9340 308° West 432 497 38,000  Level FlightAware ADS-B
Mon 04:56:47 AM 52.4670 20.8300 308° West 433 498 38,000  Level FlightAware ADS-B
Mon 04:57:27 AM 52.5150 20.7300 308° West 430 495 38,000  Level FlightAware ADS-B
Mon 04:58:12 AM 52.5700 20.6140 308° West 429 494 38,000  Level FlightAware ADS-B
Mon 04:58:52 AM 52.6190 20.5110 308° West 428 493 38,000  Level FlightAware ADS-B
Mon 04:59:32 AM 52.6660 20.4100 308° West 427 491 38,000  Level FlightAware ADS-B
Mon 05:00:17 AM 52.7240 20.2940 310° West 425 489 38,000  Level FlightAware ADS-B
Mon 05:00:57 AM 52.7770 20.1950 312° West 424 488 38,000  Level FlightAware ADS-B
Mon 05:01:37 AM 52.8280 20.1000 312° West 427 491 38,000  Level FlightAware ADS-B
Mon 05:02:22 AM 52.8860 19.9930 312° West 427 491 38,000  Level FlightAware ADS-B
Mon 05:03:02 AM 52.9390 19.8950 312° West 426 490 38,000  Level FlightAware ADS-B
Mon 05:03:47 AM 52.9980 19.7840 311° West 424 488 38,000  Level FlightAware ADS-B
Mon 05:04:27 AM 53.0500 19.6860 311° West 425 489 38,000  Level FlightAware ADS-B
Mon 05:05:07 AM 53.1020 19.5870 311° West 426 490 38,000  Level FlightAware ADS-B
Mon 05:05:52 AM 53.1590 19.4790 311° West 426 490 38,000  Level FlightAware ADS-B
Mon 05:06:32 AM 53.2110 19.3800 311° West 428 493 38,000  Level FlightAware ADS-B
Mon 05:07:12 AM 53.2630 19.2810 311° West 430 495 38,000  Level FlightAware ADS-B
Mon 05:07:57 AM 53.3230 19.1650 311° West 429 494 38,000  Level FlightAware ADS-B
Mon 05:08:37 AM 53.3750 19.0650 311° West 431 496 38,000  Level FlightAware ADS-B
Mon 05:09:22 AM 53.4330 18.9530 311° West 431 496 38,000  Level FlightAware ADS-B
Mon 05:10:02 AM 53.4860 18.8510 311° West 433 498 38,000  Level FlightAware ADS-B
Mon 05:10:42 AM 53.5330 18.7500 308° West 427 491 38,000  Level FlightAware ADS-B
Mon 05:11:27 AM 53.5830 18.6250 304° West 426 490 38,000  Level FlightAware ADS-B
Mon 05:12:07 AM 53.6270 18.5120 303° West 427 491 38,000  Level FlightAware ADS-B
Mon 05:12:52 AM 53.6750 18.3890 303° West 427 491 38,000  Level FlightAware ADS-B
Mon 05:13:32 AM 53.7180 18.2780 303° West 429 494 38,000  Level FlightAware ADS-B
Mon 05:14:12 AM 53.7630 18.1620 303° West 427 491 38,000  Level FlightAware ADS-B
Mon 05:14:57 AM 53.8080 18.0460 303° West 427 491 38,000  Level FlightAware ADS-B
Mon 05:15:37 AM 53.8530 17.9270 303° West 430 495 38,000  Level FlightAware ADS-B
Mon 05:16:22 AM 53.9020 17.7980 303° West 430 495 38,000  Level FlightAware ADS-B
Mon 05:17:02 AM 53.9450 17.6850 303° West 431 496 38,000  Level FlightAware ADS-B
Mon 05:17:42 AM 53.9880 17.5710 303° West 432 497 38,000  Level FlightAware ADS-B
Mon 05:18:27 AM 54.0350 17.4450 302° West 433 498 38,000  Level FlightAware ADS-B
Mon 05:19:07 AM 54.0790 17.3280 303° West 431 496 38,000  Level FlightAware ADS-B
Mon 05:19:52 AM 54.1270 17.1980 302° West 430 495 38,000  Level FlightAware ADS-B
Mon 05:20:32 AM 54.1700 17.0840 303° West 432 497 38,000  Level FlightAware ADS-B
Mon 05:21:17 AM 54.2160 16.9570 302° West 433 498 38,000  Level FlightAware ADS-B
Mon 05:21:57 AM 54.2620 16.8420 304° West 440 506 38,000  Level FlightAware ADS-B
Mon 05:22:42 AM 54.3170 16.7150 307° West 443 510 38,000  Level FlightAware ADS-B
Mon 05:23:22 AM 54.3660 16.6030 307° West 443 510 38,000  Level FlightAware ADS-B
Mon 05:24:07 AM 54.4200 16.4780 307° West 444 511 38,000  Level FlightAware ADS-B
Mon 05:24:47 AM 54.4690 16.3650 307° West 448 516 38,000  Level FlightAware ADS-B
Mon 05:25:27 AM 54.5190 16.2480 306° West 450 518 38,000  Level FlightAware ADS-B
Mon 05:26:12 AM 54.5730 16.1200 306° West 453 521 38,000  Level FlightAware ADS-B
Mon 05:26:52 AM 54.6230 16.0030 306° West 455 524 38,000  Level FlightAware ADS-B
Mon 05:27:32 AM 54.6660 15.8810 301° West 443 510 38,000  Level FlightAware ADS-B
Mon 05:28:12 AM 54.6930 15.7470 289° West 436 502 38,000  Level FlightAware ADS-B
Mon 05:28:57 AM 54.7160 15.5980 285° West 433 498 38,000  Level FlightAware ADS-B
Mon 05:29:42 AM 54.7390 15.4470 285° West 432 497 38,000  Level FlightAware ADS-B
Mon 05:30:22 AM 54.7590 15.3130 285° West 433 498 38,000  Level FlightAware ADS-B
Mon 05:31:02 AM 54.7780 15.1860 285° West 434 499 38,000  Level FlightAware ADS-B
Mon 05:31:47 AM 54.8010 15.0320 285° West 435 501 38,000  Level FlightAware ADS-B
Mon 05:32:27 AM 54.8200 14.9020 284° West 436 502 38,000  Level FlightAware ADS-B
Mon 05:33:12 AM 54.8420 14.7530 284° West 439 505 38,000  Level FlightAware ADS-B
Mon 05:33:52 AM 54.8630 14.6100 284° West 441 507 38,000  Level FlightAware ADS-B
Mon 05:34:32 AM 54.8830 14.4670 284° West 442 509 38,000  Level FlightAware ADS-B
Mon 05:35:17 AM 54.9040 14.3170 284° West 444 511 38,000  Level FlightAware ADS-B
Mon 05:35:57 AM 54.9240 14.1760 284° West 444 511 38,000  Level FlightAware ADS-B
Mon 05:36:42 AM 54.9450 14.0240 284° West 442 509 38,000  Level FlightAware ADS-B
Mon 05:37:17 AM 54.9610 13.9070 283° West 441 507 38,000  Level FlightAware ADS-B
Mon 05:38:02 AM 54.9840 13.7410 284° West 437 503 38,000  Level FlightAware ADS-B
Mon 05:38:47 AM 55.0050 13.5850 283° West 437 503 38,000  Level FlightAware ADS-B
Mon 05:39:27 AM 55.0230 13.4550 284° West 437 503 38,000  Level FlightAware ADS-B
Mon 05:40:12 AM 55.0440 13.2950 283° West 440 506 38,000  Level FlightAware ADS-B
Mon 05:40:52 AM 55.0610 13.1600 282° West 442 509 38,000  Level FlightAware ADS-B
Mon 05:41:32 AM 55.0800 13.0200 283° West 443 510 38,000  Level FlightAware ADS-B
Mon 05:42:17 AM 55.1000 12.8630 283° West 441 507 38,000  Level FlightAware ADS-B
Mon 05:42:57 AM 55.1170 12.7240 282° West 442 509 38,000  Level FlightAware ADS-B
Mon 05:43:37 AM 55.1350 12.5820 283° West 444 511 38,000  Level FlightAware ADS-B
Mon 05:44:22 AM 55.1550 12.4270 283° West 444 511 38,000  Level FlightAware ADS-B
Mon 05:45:02 AM 55.1720 12.2870 282° West 444 511 38,000  Level FlightAware ADS-B
Mon 05:45:47 AM 55.1910 12.1320 282° West 444 511 38,000  Level FlightAware ADS-B
Mon 05:46:27 AM 55.2080 11.9890 282° West 443 510 38,000  Level FlightAware ADS-B
Mon 05:47:12 AM 55.2260 11.8350 282° West 445 512 38,000  Level FlightAware ADS-B
Mon 05:47:52 AM 55.2430 11.6910 282° West 447 514 38,000  Level FlightAware ADS-B
Mon 05:48:32 AM 55.2600 11.5490 282° West 447 514 38,000  Level FlightAware ADS-B
Mon 05:49:17 AM 55.2790 11.3850 282° West 448 516 38,000  Level FlightAware ADS-B
Mon 05:49:57 AM 55.2950 11.2430 281° West 449 517 38,000  Level FlightAware ADS-B
Mon 05:50:42 AM 55.3130 11.0860 281° West 451 519 38,000  Level FlightAware ADS-B
Mon 05:51:22 AM 55.3290 10.9420 281° West 450 518 38,000  Level FlightAware ADS-B
Mon 05:52:02 AM 55.3440 10.8000 281° West 451 519 38,000  Level FlightAware ADS-B
Mon 05:52:47 AM 55.3620 10.6360 281° West 448 516 38,000  Level FlightAware ADS-B
Mon 05:53:27 AM 55.3780 10.4930 281° West 444 511 38,000  Level FlightAware ADS-B
Mon 05:54:12 AM 55.3940 10.3370 280° West 444 511 38,000  Level FlightAware ADS-B
Mon 05:54:52 AM 55.4090 10.1950 281° West 445 512 38,000  Level FlightAware ADS-B
Mon 05:55:32 AM 55.4240 10.0520 281° West 447 514 38,000  Level FlightAware ADS-B
Mon 05:56:17 AM 55.4400 9.8970 280° West 451 519 38,000  Level FlightAware ADS-B
Mon 05:56:57 AM 55.4550 9.7520 280° West 452 520 38,000  Level FlightAware ADS-B
Mon 05:57:42 AM 55.4710 9.5870 280° West 448 516 38,000  Level FlightAware ADS-B
Mon 05:58:22 AM 55.4850 9.4450 280° West 449 517 38,000  Level FlightAware ADS-B
Mon 05:59:02 AM 55.5000 9.2940 280° West 452 520 38,000  Level FlightAware ADS-B
Mon 05:59:47 AM 55.5140 9.1390 279° West 454 522 38,000  Level FlightAware ADS-B
Mon 06:00:27 AM 55.5290 8.9860 280° West 455 524 38,000  Level FlightAware ADS-B
Mon 06:01:12 AM 55.5440 8.8210 279° West 458 527 38,000  Level FlightAware ADS-B
Mon 06:01:52 AM 55.5570 8.6850 280° West 459 528 38,000  Level FlightAware ADS-B
Mon 06:02:32 AM 55.5700 8.5370 279° West 461 531 38,000  Level FlightAware ADS-B
Mon 06:03:17 AM 55.5850 8.3710 279° West 464 534 38,000  Level FlightAware ADS-B
Mon 06:03:57 AM 55.5980 8.2230 279° West 464 534 38,000  Level FlightAware ADS-B
Mon 06:04:37 AM 55.6110 8.0690 279° West 463 533 38,000  Level FlightAware ADS-B
Mon 06:05:22 AM 55.6250 7.9030 279° West 462 532 38,000  Level FlightAware ADS-B
Mon 06:06:02 AM 55.6380 7.7530 279° West 458 527 38,000  Level FlightAware ADS-B
Mon 06:06:42 AM 55.6500 7.6050 278° West 457 526 38,000  Level FlightAware ADS-B
Mon 06:07:27 AM 55.6630 7.4410 278° West 455 524 38,000  Level FlightAware ADS-B
Mon 06:08:07 AM 55.6740 7.3030 278° West 455 524 38,000  Level FlightAware ADS-B
Mon 06:08:52 AM 55.6880 7.1260 278° West 453 521 38,000  Level FlightAware ADS-B
Mon 06:09:32 AM 55.6990 6.9820 278° West 453 521 38,000  Level FlightAware ADS-B
Mon 06:10:17 AM 55.7120 6.8170 278° West 453 521 38,000 -1,200 Level FlightAware ADS-B
Mon 06:10:47 AM 55.7183 6.6877 278° West 1 1 36,500  Descending FlightAware UK
Mon 06:10:57 AM 55.7230 6.6700 278° West 452 520 38,000  Climbing FlightAware ADS-B
Mon 06:11:17 AM 55.7285 6.5749 278° West 1 1 36,500  Descending FlightAware UK
Mon 06:11:37 AM 55.7340 6.5230 278° West 452 520 38,000  Climbing FlightAware ADS-B
Mon 06:11:59 AM 55.7406 6.4202 278° West 1 1 36,500  Descending FlightAware UK
Mon 06:12:22 AM 55.7460 6.3540 278° West 454 522 38,000 1,429 Climbing FlightAware ADS-B
Mon 06:13:02 AM 55.7560 6.2070 277° West 453 521 38,000 -1,636 Level FlightAware ADS-B
Mon 06:13:17 AM 55.7613 6.1318 277° West 1 1 36,500  Descending FlightAware UK
Mon 06:13:47 AM 55.7680 6.0430 277° West 450 518 38,000  Climbing FlightAware ADS-B
Mon 06:14:23 AM 55.7783 5.8884 277° West 1 1 36,500  Descending FlightAware UK
Mon 06:14:27 AM 55.7790 5.8830 277° West 451 519 38,000  Climbing FlightAware ADS-B
Mon 06:15:05 AM 55.7887 5.7345 277° West 1 1 36,500  Descending FlightAware UK
Mon 06:15:07 AM 55.7870 5.7510 277° West 451 519 38,000 1,915 Climbing FlightAware ADS-B
Mon 06:15:52 AM 55.7990 5.5820 277° West 451 519 38,000 -1,406 Level FlightAware ADS-B
Mon 06:16:11 AM 55.8045 5.4924 277° West 494 568 36,500 -2,432 Descending FlightAware UK
Mon 06:16:29 AM 55.8088 5.4260 277° West 494 568 36,500 4,286 Level FlightAware UK
Mon 06:16:32 AM 55.8080 5.4380 277° West 449 517 38,000  Climbing FlightAware ADS-B
Mon 06:16:53 AM 55.8144 5.3379 277° West 492 566 36,500 -2,308 Descending FlightAware UK
Mon 06:17:11 AM 55.8185 5.2729 276° West 492 566 36,500 3,750 Level FlightAware UK
Mon 06:17:17 AM 55.8180 5.2760 276° West 446 513 38,000  Climbing FlightAware ADS-B
Mon 06:17:41 AM 55.8256 5.1635 276° West 490 564 36,500  Descending FlightAware UK
Mon 06:17:57 AM 55.8270 5.1290 276° West 445 512 38,000  Climbing FlightAware ADS-B
Mon 06:18:17 AM 55.8337 5.0328 276° West 490 564 36,500  Descending FlightAware UK
Mon 06:18:42 AM 55.8370 4.9600 276° West 446 513 38,000  Climbing FlightAware ADS-B
Mon 06:19:05 AM 55.8436 4.8587 276° West 490 564 36,500  Descending FlightAware UK
Mon 06:19:22 AM 55.8460 4.8130 276° West 446 513 38,000  Climbing FlightAware ADS-B
Mon 06:19:59 AM 55.8549 4.6623 276° West 490 564 36,500  Descending FlightAware UK
Mon 06:20:02 AM 55.8540 4.6720 276° West 446 513 38,000  Climbing FlightAware ADS-B
Mon 06:20:35 AM 55.8625 4.5310 276° West 490 564 36,500  Descending FlightAware UK
Mon 06:20:42 AM 55.8620 4.5360 276° West 446 513 38,000 2,143 Climbing FlightAware ADS-B
Mon 06:21:17 AM 55.8690 4.4070 276° West 447 514 38,000  Level FlightAware ADS-B
Mon 06:22:12 AM 55.8800 4.1980 275° West 444 511 38,000 -1,250 Level FlightAware ADS-B
Mon 06:22:29 AM 55.8846 4.1168 275° West 490 564 36,500  Descending FlightAware UK
Mon 06:22:47 AM 55.8870 4.0760 275° West 444 511 38,000  Climbing FlightAware ADS-B
Mon 06:23:11 AM 55.8906 3.9650 275° West 494 568 36,500  Descending FlightAware UK
Mon 06:23:32 AM 55.8850 3.9080 275° West 439 505 38,000  Climbing FlightAware ADS-B
Mon 06:23:47 AM 55.8794 3.8365 275° West 492 566 36,500  Descending FlightAware UK
Mon 06:24:17 AM 55.8710 3.7480 275° West 437 503 38,000  Climbing FlightAware ADS-B
Mon 06:24:35 AM 55.8619 3.6672 275° West 488 562 36,500 -1,667 Descending FlightAware UK
Mon 06:25:11 AM 55.8470 3.5404 258° West 488 562 36,500 1,915 Level FlightAware UK
Mon 06:25:22 AM 55.8430 3.5180 258° West 438 504 38,000  Climbing FlightAware ADS-B
Mon 06:26:05 AM 55.8220 3.3509 258° West 490 564 36,500  Descending FlightAware UK
Mon 06:26:07 AM 55.8250 3.3750 258° West 441 507 38,000 1,915 Climbing FlightAware ADS-B
Mon 06:26:52 AM 55.8020 3.2070 256° West 441 507 38,000 -1,406 Level FlightAware ADS-B
Mon 06:27:11 AM 55.7900 3.1195 256° West 490 564 36,500  Descending FlightAware UK
Mon 06:27:27 AM 55.7850 3.0830 256° West 438 504 38,000  Climbing FlightAware ADS-B
Mon 06:27:58 AM 55.7673 2.9520 256° West 490 564 36,500  Descending FlightAware UK
Mon 06:28:07 AM 55.7660 2.9420 256° West 439 505 38,000  Climbing FlightAware ADS-B
Mon 06:28:28 AM 55.7530 2.8466 256° West 490 564 36,500 -2,000 Descending FlightAware UK
Mon 06:28:52 AM 55.7416 2.7623 257° West 490 564 36,500 3,103 Level FlightAware UK
Mon 06:28:57 AM 55.7430 2.7720 257° West 440 506 38,000  Climbing FlightAware ADS-B
Mon 06:29:16 AM 55.7301 2.6778 257° West 490 564 36,500  Descending FlightAware UK
Mon 06:29:52 AM 55.7160 2.5770 257° West 443 510 38,000  Climbing FlightAware ADS-B
Mon 06:30:16 AM 55.7005 2.4648 257° West 488 562 36,500  Descending FlightAware UK
Mon 06:30:32 AM 55.6960 2.4340 257° West 444 511 38,000 -333 Climbing FlightAware ADS-B
Mon 06:30:52 AM 55.6826 2.3375 257° West 486 559 36,300 -686 Descending FlightAware UK
Mon 06:31:07 AM 55.6790 2.3100 256° West 445 512 37,600 -1,333 Climbing FlightAware ADS-B
Mon 06:31:10 AM 55.6734 2.2737 256° West 486 559 35,900 -8,000 Descending FlightAware UK
Mon 06:31:22 AM 55.6673 2.2312 256° West 488 562 35,600 -1,200 Descending FlightAware UK
Mon 06:31:40 AM 55.6580 2.1689 255° West 486 559 35,300 2,400 Descending FlightAware UK
Mon 06:31:52 AM 55.6550 2.1520 255° West 436 502 36,800 -1,200 Climbing FlightAware ADS-B
Mon 06:32:10 AM 55.6424 2.0676 255° West 474 545 34,700 -4,333 Descending FlightAware UK
Mon 06:32:28 AM 55.6335 2.0071 255° West 470 541 34,200 1,688 Descending FlightAware UK
Mon 06:32:42 AM 55.6300 1.9820 255° West 420 483 35,600 -1,600 Climbing FlightAware ADS-B
Mon 06:32:58 AM 55.6182 1.9081 255° West 458 527 33,400 -1,800 Descending FlightAware UK
Mon 06:33:22 AM 55.6090 1.8500 255° West 411 473 34,400 -1,545 Climbing FlightAware ADS-B
Mon 06:34:04 AM 55.5850 1.6966 255° West 450 518 31,700 -1,440 Descending FlightAware UK
Mon 06:34:12 AM 55.5840 1.6910 255° West 407 468 33,200 -1,000 Climbing FlightAware ADS-B
Mon 06:34:28 AM 55.5725 1.6205 255° West 444 511 31,300 -1,067 Descending FlightAware UK
Mon 06:34:57 AM 55.5610 1.5520 255° West 384 442 32,400 -1,375 Climbing FlightAware ADS-B
Mon 06:35:16 AM 55.5488 1.4772 255° West 422 486 30,200 -4,541 Descending FlightAware UK
Mon 06:35:34 AM 55.5399 1.4240 253° West 412 474 29,600 2,077 Descending FlightAware UK
Mon 06:35:42 AM 55.5390 1.4200 253° West 370 426 31,100 -1,600 Climbing FlightAware ADS-B
Mon 06:36:04 AM 55.5314 1.3366 253° West 404 465 28,800 -3,900 Descending FlightAware UK
Mon 06:36:22 AM 55.5283 1.2832 264° West 406 467 28,500 4,333 Descending FlightAware UK
Mon 06:36:22 AM 55.5290 1.3010 264° West 366 421 30,100  Climbing FlightAware ADS-B
Mon 06:36:40 AM 55.5258 1.2297 264° West 412 474 28,500 -133 Descending FlightAware UK
Mon 06:37:07 AM 55.5220 1.1660 264° West 374 430 30,000 -255 Climbing FlightAware ADS-B
Mon 06:37:27 AM 55.5178 1.0852 264° West 410 472 28,300 -3,789 Descending FlightAware UK
Mon 06:37:45 AM 55.5148 1.0309 264° West 410 472 27,600 3,000 Descending FlightAware UK
Mon 06:37:47 AM 55.5160 1.0460 264° West 372 428 29,300 -3,800 Climbing FlightAware ADS-B
Mon 06:38:15 AM 55.5096 0.9400 264° West 426 490 25,700 -3,300 Descending FlightAware UK
Mon 06:38:27 AM 55.5080 0.9210 264° West 385 443 27,100 211 Climbing FlightAware ADS-B
Mon 06:39:12 AM 55.4950 0.7870 260° West 371 427 25,900 -3,154 Descending FlightAware ADS-B
Mon 06:39:45 AM 55.4788 0.6716 260° West 406 467 23,000 -2,100 Descending FlightAware UK
Mon 06:39:52 AM 55.4780 0.6700 260° West 363 418 24,500  Climbing FlightAware ADS-B
Mon 06:40:37 AM 55.4560 0.5430 253° West 358 412 23,000 -2,961 Descending FlightAware ADS-B
Mon 06:41:09 AM 55.4379 0.4378 253° West 390 449 20,700 -1,350 Descending FlightAware UK
Mon 06:41:17 AM 55.4370 0.4330 253° West 348 400 22,100  Climbing FlightAware ADS-B
Mon 06:42:02 AM 55.4160 0.3150 253° West 342 394 20,700 -3,563 Descending FlightAware ADS-B
Mon 06:42:21 AM 55.4037 0.2463 253° West 370 426 18,300 -1,950 Descending FlightAware UK
Mon 06:42:42 AM 55.3970 0.2070 253° West 336 387 19,400 -1,833 Climbing FlightAware ADS-B
Mon 06:42:57 AM 55.3870 0.1527 253° West 364 419 17,200 -4,462 Descending FlightAware UK
Mon 06:43:21 AM 55.3759 0.0913 252° West 364 419 16,500 2,160 Descending FlightAware UK
Mon 06:43:22 AM 55.3780 0.1040 252° West 332 382 18,100 -2,000 Climbing FlightAware ADS-B
Mon 06:43:39 AM 55.3677 0.0452 252° West 362 417 15,900 -1,800 Descending FlightAware UK
Mon 06:44:02 AM 55.3600 0.0020 252° West 325 374 16,900 -1,750 Climbing FlightAware ADS-B
Mon 06:44:03 AM 55.3569 -0.0147 252° West 358 412 15,200 -5,760 Descending FlightAware UK
Mon 06:44:27 AM 55.3461 -0.0741 252° West 354 407 14,500 923 Descending FlightAware UK
Mon 06:44:42 AM 55.3420 -0.0950 252° West 319 367 15,800  Climbing FlightAware ADS-B
Mon 06:45:27 AM 55.3220 -0.2060 252° West 310 357 14,500 -1,800 Descending FlightAware ADS-B
Mon 06:46:02 AM 55.3070 -0.2900 253° West 304 350 13,400 -3,667 Descending FlightAware ADS-B
Mon 06:46:21 AM 55.2962 -0.3476 253° West 330 380 11,200 -4,378 Descending FlightAware UK
Mon 06:46:39 AM 55.2884 -0.3893 252° West 326 375 10,700 1,742 Descending FlightAware UK
Mon 06:46:52 AM 55.2860 -0.4020 252° West 297 342 12,100 -1,600 Climbing FlightAware ADS-B
Mon 06:47:09 AM 55.2756 -0.4582 252° West 326 375 9,900 -4,350 Descending FlightAware UK
Mon 06:47:32 AM 55.2654 -0.5129 252° West 322 371 9,200 2,143 Descending FlightAware UK
Mon 06:47:37 AM 55.2670 -0.5030 252° West 295 339 10,900 -600 Climbing FlightAware ADS-B
Mon 06:48:02 AM 55.2531 -0.5797 252° West 304 350 8,900 -857 Descending FlightAware UK
Mon 06:48:12 AM 55.2520 -0.5880 252° West 279 321 10,400 -500 Climbing FlightAware ADS-B
Mon 06:48:50 AM 55.2348 -0.6780 252° West 276 318 8,500 -480 Descending FlightAware UK
Mon 06:49:02 AM 55.2320 -0.6950 252° West 246 283 10,000 1,622 Climbing FlightAware ADS-B
Mon 06:49:27 AM 55.2230 -0.7430 252° West 245 282 9,500 -1,091 Descending FlightAware ADS-B
Mon 06:49:57 AM 55.2140 -0.7950 253° West 244 281 9,000 -1,309 Descending FlightAware ADS-B
Mon 06:50:22 AM 55.2030 -0.8470 250° West 246 283 8,300 -1,527 Descending FlightAware ADS-B
Mon 06:50:52 AM 55.1940 -0.9050 255° West 243 280 7,600 -3,391 Descending FlightAware ADS-B
Mon 06:51:08 AM 55.1889 -0.9381 255° West 262 302 5,700 -1,200 Descending FlightAware UK
Mon 06:51:22 AM 55.1860 -0.9610 255° West 240 276 7,000 -1,200 Climbing FlightAware ADS-B
Mon 06:51:38 AM 55.1814 -0.9944 255° West 262 302 5,100 -960 Descending FlightAware UK
Mon 06:51:47 AM 55.1800 -1.0070 255° West 239 275 6,600 1,846 Climbing FlightAware ADS-B
Mon 06:52:17 AM 55.1720 -1.0610 255° West 227 261 6,300 -2,667 Descending FlightAware ADS-B
Mon 06:52:32 AM 55.1666 -1.0922 255° West 240 276 4,600 -480 Descending FlightAware UK
Mon 06:53:07 AM 55.1620 -1.1230 255° West 211 243 5,900 -833 Climbing FlightAware ADS-B
Mon 06:53:08 AM 55.1577 -1.1510 255° West 230 265 4,100 -5,040 Descending FlightAware UK
Mon 06:53:32 AM 55.1520 -1.1898 255° West 230 265 3,800 2,897 Descending FlightAware UK
Mon 06:53:37 AM 55.1550 -1.1720 255° West 207 238 5,500 6,400 Climbing FlightAware ADS-B
Mon 06:53:47 AM 55.1520 -1.1880 252° West 207 238 5,400 -4,800 Descending FlightAware ADS-B
Mon 06:54:02 AM 55.1451 -1.2353 252° West 212 244 3,500 -857 Descending FlightAware UK
Mon 06:54:22 AM 55.1440 -1.2430 252° West 182 209 4,900 2,200 Climbing FlightAware ADS-B
Mon 06:54:32 AM 55.1420 -1.2560 255° West 178 205 4,600 -5,786 Descending FlightAware ADS-B
Mon 06:54:50 AM 55.1347 -1.3001 255° West 202 232 2,200 -1,680 Descending FlightAware UK
Mon 06:54:57 AM 55.1370 -1.2920 255° West 170 196 3,900 -500 Climbing FlightAware ADS-B
Mon 06:55:14 AM 55.1311 -1.3299 255° West 1 1 2,000 -800 Descending FlightAware UK
Mon 06:55:27 AM 55.1320 -1.3320 255° West 154 177 3,500  Climbing FlightAware ADS-B
Mon 06:55:44 AM 55.1273 -1.3634 255° West 1 1 2,000  Descending FlightAware UK
Mon 06:56:02 AM 55.1240 -1.3670 255° West 134 154 3,500 1,953 Climbing FlightAware ADS-B
Mon 06:56:27 AM 55.1180 -1.3890 245° Southwest 138 159 3,400 -240 Descending FlightAware ADS-B
Mon 06:56:52 AM 55.1120 -1.4110 245° Southwest 133 153 3,300 -2,426 Descending FlightAware ADS-B
Mon 06:57:14 AM 55.1012 -1.4492 245° Southwest 1 1 1,500 -400 Descending FlightAware UK
Mon 06:57:22 AM 55.1030 -1.4420 245° Southwest 133 153 3,100 5,333 Climbing FlightAware ADS-B
Mon 06:57:32 AM 55.1010 -1.4520 251° West 134 154 3,100 -4,071 Level FlightAware ADS-B
Mon 06:57:50 AM 55.0917 -1.4843 251° West 1 1 1,200 -800 Descending FlightAware UK
Mon 06:58:02 AM 55.0920 -1.4830 251° West 133 153 2,700 -800 Climbing FlightAware ADS-B
Mon 06:58:20 AM 55.0847 -1.5143 251° West 1 1 800 -686 Descending FlightAware UK
Mon 06:58:37 AM 55.0830 -1.5180 251° West 130 150 2,300 1,714 Climbing FlightAware ADS-B
Mon 06:59:02 AM 55.0770 -1.5420 246° West 128 147 2,000 -545 Descending FlightAware ADS-B
Mon 06:59:32 AM 55.0700 -1.5700 246° West 120 138 1,800 -600 Descending FlightAware ADS-B
Mon 06:59:42 AM 55.0670 -1.5790 240° Southwest 125 144 1,600 -800 Descending FlightAware ADS-B
Mon 07:00:02 AM 55.0620 -1.5970 244° Southwest 123 142 1,400 -667 Descending FlightAware ADS-B
Mon 07:00:27 AM 55.0570 -1.6170 246° West 115 132 1,100 -533 Descending FlightAware ADS-B
Mon 07:00:47 AM 55.0530 -1.6330 246° West 113 130 1,000 -480 Descending FlightAware ADS-B
Mon 07:01:17 AM 55.0480 -1.6510 244° Southwest 120 138 700 -933 Descending FlightAware ADS-B
Mon 07:01:32 AM 55.0410 -1.6790 246° West 119 137 300 -1,600 Descending FlightAware ADS-B

Login

Don't have an account? Register now (free) for customized features, flight alerts, and more!